Grottoes, Virginia
Current Conditions -  °F | °C
As of 3:35 PM on Saturday 25 Oct 2014 (Local Time) from KSHD Reporting Station
Clear Clear  
Wind Chill: 71°   Ceiling: Unl
Heat Index: 71°   Visibility: 10mi
Dew Point: 39°   Wind: 9mph
Humidity: 31%   Direction: 220°SW
Pressure: 29.85"   Gusts: NA
Location:  38.27°N, 78.83°W
Report Text: KSHD 251935Z AUTO 22008KT 10SM CLR 22/04 A2985 RMK AO2 T02190038
Loading
Personal Weather Stations






























Interactive Weather Map
Tropical Storm Tracking
New forecast layout! Learn more

10-Day Weather Forecast

Advertisements
Track Severe Weather on mobile